createdAt,value
2023-03-11T00:00:00.674Z,99.99
2023-03-11T00:01:00.664Z,99.99
2023-03-11T00:02:00.772Z,99.99
2023-03-11T00:03:00.983Z,99.99
2023-03-11T00:04:00.671Z,99.99
2023-03-11T00:05:00.703Z,99.99
2023-03-11T00:06:00.634Z,99.99
2023-03-11T00:07:00.622Z,99.99
2023-03-11T00:08:00.610Z,99.99
2023-03-11T00:09:00.636Z,99.99
2023-03-11T00:10:00.855Z,99.99
2023-03-11T00:11:00.654Z,99.99
2023-03-11T00:12:00.635Z,99.99
2023-03-11T00:13:00.635Z,99.99
2023-03-11T00:14:00.533Z,99.99
2023-03-11T00:15:00.581Z,99.99
2023-03-11T00:16:00.518Z,99.99
2023-03-11T00:17:00.827Z,99.99
2023-03-11T00:18:00.504Z,99.99
2023-03-11T00:19:00.504Z,99.99
2023-03-11T00:20:00.482Z,99.99
2023-03-11T00:21:00.573Z,99.99
2023-03-11T00:22:00.464Z,99.99
2023-03-11T00:23:00.446Z,99.99
2023-03-11T00:24:00.713Z,99.99
2023-03-11T00:25:00.432Z,99.99
2023-03-11T00:26:00.549Z,99.99
2023-03-11T00:27:00.447Z,99.99
2023-03-11T00:28:00.442Z,99.99
2023-03-11T00:29:00.388Z,99.99
2023-03-11T00:30:00.377Z,99.99
2023-03-11T00:31:00.731Z,99.99
2023-03-11T00:32:00.336Z,99.99
2023-03-11T00:33:00.389Z,99.99
2023-03-11T00:34:00.336Z,99.99
2023-03-11T00:35:00.327Z,99.99
2023-03-11T00:36:00.364Z,99.99
2023-03-11T00:37:00.308Z,99.99
2023-03-11T00:38:00.575Z,99.99
2023-03-11T00:39:00.478Z,99.99
2023-03-11T00:40:00.264Z,99.99
2023-03-11T00:41:00.262Z,99.99
2023-03-11T00:42:00.250Z,99.99
2023-03-11T00:43:00.227Z,99.99
2023-03-11T00:44:00.245Z,99.99
2023-03-11T00:45:00.532Z,99.99
2023-03-11T00:46:00.301Z,99.99
2023-03-11T00:47:00.181Z,99.99
2023-03-11T00:48:00.220Z,99.99
2023-03-11T00:49:00.174Z,99.99
2023-03-11T00:50:00.181Z,99.99
2023-03-11T00:51:00.204Z,99.99
2023-03-11T00:52:00.418Z,99.99
2023-03-11T00:53:00.169Z,99.99
2023-03-11T00:54:00.179Z,99.99
2023-03-11T00:55:00.124Z,99.99
2023-03-11T00:56:00.118Z,99.99
2023-03-11T00:57:00.128Z,99.99
2023-03-11T00:58:00.107Z,99.99
2023-03-11T00:59:00.390Z,99.99
2023-03-11T01:00:00.093Z,99.99
2023-03-11T01:01:00.094Z,99.99
2023-03-11T01:02:00.060Z,99.99
2023-03-11T01:03:00.102Z,99.99
2023-03-11T01:04:00.046Z,99.99
2023-03-11T01:05:00.015Z,99.99
2023-03-11T01:06:00.324Z,99.99
2023-03-11T01:06:59.991Z,99.99
2023-03-11T01:07:59.981Z,99.99
2023-03-11T01:09:00.306Z,99.99
2023-03-11T01:09:59.974Z,99.99
2023-03-11T01:10:59.955Z,99.99
2023-03-11T01:11:59.940Z,99.99
2023-03-11T01:13:00.207Z,99.99
2023-03-11T01:13:59.916Z,99.99
2023-03-11T01:14:59.987Z,99.99
2023-03-11T01:16:00.065Z,99.99
2023-03-11T01:16:59.886Z,99.99
2023-03-11T01:17:59.879Z,99.99
2023-03-11T01:18:59.859Z,99.99
2023-03-11T01:20:00.161Z,99.99
2023-03-11T01:20:59.913Z,99.99
2023-03-11T01:21:59.838Z,99.99
2023-03-11T01:22:59.885Z,99.99
2023-03-11T01:23:59.809Z,99.99
2023-03-11T01:24:59.831Z,99.99
2023-03-11T01:25:59.784Z,99.99
2023-03-11T01:27:00.117Z,99.99
2023-03-11T01:27:59.775Z,99.99
2023-03-11T01:28:59.766Z,99.99
2023-03-11T01:29:59.739Z,99.99
2023-03-11T01:30:59.842Z,99.99
2023-03-11T01:31:59.732Z,99.99
2023-03-11T01:32:59.770Z,99.99
2023-03-11T01:33:59.976Z,99.99
2023-03-11T01:34:59.699Z,99.99
2023-03-11T01:35:59.789Z,99.99
2023-03-11T01:36:59.668Z,99.99
2023-03-11T01:37:59.658Z,99.99
2023-03-11T01:39:00.464Z,99.99
2023-03-11T01:39:59.633Z,99.99
2023-03-11T01:40:59.929Z,99.99
2023-03-11T01:41:59.623Z,99.99
2023-03-11T01:42:59.616Z,99.99
2023-03-11T01:43:59.603Z,99.99
2023-03-11T01:44:59.619Z,99.99
2023-03-11T01:45:59.615Z,99.99
2023-03-11T01:46:59.587Z,99.99
2023-03-11T01:47:59.845Z,99.99
2023-03-11T01:48:59.561Z,99.99
2023-03-11T01:49:59.540Z,99.99
2023-03-11T01:50:59.565Z,99.99
2023-03-11T01:51:59.529Z,99.99
2023-03-11T01:52:59.526Z,99.99
2023-03-11T01:53:59.493Z,99.99
2023-03-11T01:54:59.769Z,99.99
2023-03-11T01:55:59.471Z,99.99
2023-03-11T01:56:59.500Z,99.99
2023-03-11T01:57:59.444Z,99.99
2023-03-11T01:58:59.464Z,99.99
2023-03-11T01:59:59.435Z,99.99
2023-03-11T02:00:59.414Z,99.99
2023-03-11T02:01:59.746Z,99.99
2023-03-11T02:02:59.481Z,99.99
2023-03-11T02:03:59.383Z,99.99
2023-03-11T02:04:59.390Z,99.99
2023-03-11T02:05:59.368Z,99.99
2023-03-11T02:06:59.362Z,99.99
2023-03-11T02:07:59.355Z,99.99
2023-03-11T02:08:59.652Z,99.99
2023-03-11T02:09:59.314Z,99.99
2023-03-11T02:10:59.314Z,99.99
2023-03-11T02:11:59.345Z,99.99
2023-03-11T02:12:59.309Z,99.99
2023-03-11T02:13:59.295Z,99.99
2023-03-11T02:14:59.315Z,99.99
2023-03-11T02:15:59.601Z,99.99
2023-03-11T02:16:59.262Z,99.99
2023-03-11T02:17:59.251Z,99.99
2023-03-11T02:18:59.229Z,99.99
2023-03-11T02:19:59.237Z,99.99
2023-03-11T02:20:59.266Z,99.99
2023-03-11T02:21:59.193Z,99.99
2023-03-11T02:22:59.494Z,99.99
2023-03-11T02:23:59.185Z,99.99
2023-03-11T02:24:59.186Z,99.99
2023-03-11T02:25:59.174Z,99.99
2023-03-11T02:26:59.246Z,99.99
2023-03-11T02:27:59.157Z,99.99
2023-03-11T02:28:59.162Z,99.99
2023-03-11T02:29:59.421Z,99.99
2023-03-11T02:30:59.234Z,99.99
2023-03-11T02:31:59.138Z,99.99
2023-03-11T02:32:59.172Z,99.99
2023-03-11T02:33:59.083Z,99.99
2023-03-11T02:34:59.096Z,99.99
2023-03-11T02:35:59.203Z,99.99
2023-03-11T02:36:59.368Z,99.99
2023-03-11T02:37:59.064Z,99.99
2023-03-11T02:38:59.095Z,99.99
2023-03-11T02:39:59.037Z,99.99
2023-03-11T02:40:59.039Z,99.99
2023-03-11T02:41:59.449Z,99.99
2023-03-11T02:42:59.131Z,99.99
2023-03-11T02:44:04.064Z,99.99
2023-03-11T02:45:02.860Z,99.99
2023-03-11T02:45:59.732Z,99.99
2023-03-11T02:47:01.014Z,99.99
2023-03-11T02:47:59.018Z,99.99
2023-03-11T02:48:59.003Z,99.99
2023-03-11T02:49:59.025Z,99.99
2023-03-11T02:50:59.447Z,99.99
2023-03-11T02:51:58.998Z,99.99
2023-03-11T02:53:03.073Z,99.99
2023-03-11T02:53:58.954Z,99.99
2023-03-11T02:54:58.976Z,99.99
2023-03-11T02:55:58.856Z,99.99
2023-03-11T02:56:59.052Z,99.99
2023-03-11T02:57:59.133Z,99.99
2023-03-11T02:58:58.832Z,99.99
2023-03-11T03:00:05.710Z,99.99
2023-03-11T03:00:58.866Z,99.99
2023-03-11T03:01:58.785Z,99.99
2023-03-11T03:02:58.828Z,99.99
2023-03-11T03:03:58.798Z,99.99
2023-03-11T03:04:59.070Z,99.99
2023-03-11T03:05:58.748Z,99.99
2023-03-11T03:06:58.755Z,99.99
2023-03-11T03:07:58.732Z,99.99
2023-03-11T03:08:58.750Z,99.99
2023-03-11T03:09:58.716Z,99.99
2023-03-11T03:10:58.722Z,99.99
2023-03-11T03:11:58.980Z,99.99
2023-03-11T03:12:58.686Z,99.99
2023-03-11T03:13:58.663Z,99.99
2023-03-11T03:14:58.728Z,99.99
2023-03-11T03:15:58.634Z,99.99
2023-03-11T03:16:58.754Z,99.99
2023-03-11T03:17:58.639Z,99.99
2023-03-11T03:18:58.913Z,99.99
2023-03-11T03:19:58.608Z,99.99
2023-03-11T03:20:58.643Z,99.99
2023-03-11T03:21:58.580Z,99.99
2023-03-11T03:22:58.594Z,99.99
2023-03-11T03:23:58.563Z,99.99
2023-03-11T03:24:58.555Z,99.99
2023-03-11T03:25:58.829Z,99.99
2023-03-11T03:26:58.582Z,99.99
2023-03-11T03:27:58.560Z,99.99
2023-03-11T03:28:58.520Z,99.99
2023-03-11T03:29:58.518Z,99.99
2023-03-11T03:30:58.517Z,99.99
2023-03-11T03:31:58.560Z,99.99
2023-03-11T03:32:58.788Z,99.99
2023-03-11T03:33:58.480Z,99.99
2023-03-11T03:34:58.464Z,99.99
2023-03-11T03:35:58.484Z,99.99
2023-03-11T03:36:58.437Z,99.99
2023-03-11T03:37:58.415Z,99.99
2023-03-11T03:38:58.507Z,99.99
2023-03-11T03:39:58.700Z,99.99
2023-03-11T03:40:58.392Z,99.99
2023-03-11T03:41:58.368Z,99.99
2023-03-11T03:42:58.383Z,99.99
2023-03-11T03:43:58.364Z,99.99
2023-03-11T03:44:58.395Z,99.99
2023-03-11T03:45:58.368Z,99.99
2023-03-11T03:46:58.610Z,99.99
2023-03-11T03:47:58.351Z,99.99
2023-03-11T03:48:58.350Z,99.99
2023-03-11T03:49:58.296Z,99.99
2023-03-11T03:50:58.353Z,99.99
2023-03-11T03:51:58.287Z,99.99
2023-03-11T03:52:58.276Z,99.99
2023-03-11T03:53:58.557Z,99.99
2023-03-11T03:54:58.259Z,99.99
2023-03-11T03:55:58.241Z,99.99
2023-03-11T03:56:58.279Z,99.99
2023-03-11T03:57:58.216Z,99.99
2023-03-11T03:58:58.221Z,99.99
2023-03-11T03:59:58.200Z,99.99
2023-03-11T04:00:58.480Z,99.99
2023-03-11T04:01:58.212Z,99.99
2023-03-11T04:02:58.250Z,99.99
2023-03-11T04:03:58.172Z,99.99
2023-03-11T04:04:58.141Z,99.99
2023-03-11T04:05:58.152Z,99.99
2023-03-11T04:06:58.126Z,99.99
2023-03-11T04:07:58.407Z,99.99
2023-03-11T04:08:58.159Z,99.99
2023-03-11T04:09:58.108Z,99.99
2023-03-11T04:10:58.077Z,99.99
2023-03-11T04:11:58.089Z,99.99
2023-03-11T04:12:58.067Z,99.99
2023-03-11T04:13:58.067Z,99.99
2023-03-11T04:14:58.400Z,99.99
2023-03-11T04:15:58.075Z,99.99
2023-03-11T04:16:58.114Z,99.99
2023-03-11T04:17:58.014Z,99.99
2023-03-11T04:18:58.004Z,99.99
2023-03-11T04:19:57.994Z,99.99
2023-03-11T04:20:58.122Z,99.99
2023-03-11T04:21:58.294Z,99.99
2023-03-11T04:22:57.963Z,99.99
2023-03-11T04:23:57.973Z,99.99
2023-03-11T04:24:57.966Z,99.99
2023-03-11T04:25:57.944Z,99.99
2023-03-11T04:26:57.966Z,99.99
2023-03-11T04:27:57.926Z,99.99
2023-03-11T04:28:59.195Z,99.99
2023-03-11T04:29:57.908Z,99.99
2023-03-11T04:30:57.925Z,99.99
2023-03-11T04:31:57.873Z,99.99
2023-03-11T04:32:57.904Z,99.99
2023-03-11T04:33:57.864Z,99.99
2023-03-11T04:34:57.840Z,99.99
2023-03-11T04:35:58.212Z,99.99
2023-03-11T04:36:57.847Z,99.99
2023-03-11T04:37:57.836Z,99.99
2023-03-11T04:38:57.854Z,99.99
2023-03-11T04:39:57.804Z,99.99
2023-03-11T04:40:58.700Z,99.99
2023-03-11T04:41:57.786Z,99.99
2023-03-11T04:42:57.776Z,99.99
2023-03-11T04:43:57.757Z,99.99
2023-03-11T04:44:57.777Z,99.99
2023-03-11T04:45:57.858Z,99.99
2023-03-11T04:46:57.753Z,99.99
2023-03-11T04:47:58.023Z,99.99
2023-03-11T04:48:57.686Z,99.99
2023-03-11T04:49:57.695Z,99.99
2023-03-11T04:50:57.790Z,99.99
2023-03-11T04:51:57.683Z,99.99
2023-03-11T04:52:57.663Z,99.99
2023-03-11T04:53:57.672Z,99.99
2023-03-11T04:54:57.623Z,99.99
2023-03-11T04:55:57.639Z,99.99
2023-03-11T04:56:57.642Z,99.99
2023-03-11T04:57:57.613Z,99.99
2023-03-11T04:58:57.606Z,99.99
2023-03-11T04:59:57.868Z,99.99
2023-03-11T05:00:57.573Z,99.99
2023-03-11T05:01:57.560Z,99.99
2023-03-11T05:02:57.622Z,99.99
2023-03-11T05:03:57.543Z,99.99
2023-03-11T05:04:57.636Z,99.99
2023-03-11T05:05:57.520Z,99.99
2023-03-11T05:06:57.790Z,99.99
2023-03-11T05:07:57.491Z,99.99
2023-03-11T05:08:57.547Z,99.99
2023-03-11T05:09:57.473Z,99.99
2023-03-11T05:10:57.472Z,99.99
2023-03-11T05:11:57.469Z,99.99
2023-03-11T05:12:57.460Z,99.99
2023-03-11T05:13:57.725Z,99.99
2023-03-11T05:14:57.481Z,99.99
2023-03-11T05:15:57.447Z,99.99
2023-03-11T05:16:57.426Z,99.99
2023-03-11T05:17:57.417Z,99.99
2023-03-11T05:18:57.411Z,99.99
2023-03-11T05:19:57.398Z,99.99
2023-03-11T05:20:57.715Z,99.99
2023-03-11T05:21:57.359Z,99.99
2023-03-11T05:22:57.361Z,99.99
2023-03-11T05:23:57.347Z,99.99
2023-03-11T05:24:57.331Z,99.99
2023-03-11T05:25:57.321Z,99.99
2023-03-11T05:26:57.360Z,99.99
2023-03-11T05:27:57.609Z,99.99
2023-03-11T05:28:57.277Z,99.99
2023-03-11T05:29:57.285Z,99.99
2023-03-11T05:30:57.316Z,99.99
2023-03-11T05:31:57.307Z,99.99
2023-03-11T05:32:57.315Z,99.99
2023-03-11T05:33:57.256Z,99.99
2023-03-11T05:34:57.511Z,99.99
2023-03-11T05:35:57.256Z,99.99
2023-03-11T05:36:57.212Z,99.99
2023-03-11T05:37:57.254Z,99.99
2023-03-11T05:38:57.235Z,99.99
2023-03-11T05:39:57.188Z,99.99
2023-03-11T05:40:57.184Z,99.99
2023-03-11T05:41:57.438Z,99.99
2023-03-11T05:42:57.163Z,99.99
2023-03-11T05:43:57.180Z,99.99
2023-03-11T05:44:57.181Z,99.99
2023-03-11T05:45:57.119Z,99.99
2023-03-11T05:46:57.223Z,99.99
2023-03-11T05:47:57.134Z,99.99
2023-03-11T05:48:57.403Z,99.99
2023-03-11T05:49:57.093Z,99.99
2023-03-11T05:50:57.139Z,99.99
2023-03-11T05:51:58.878Z,99.99
2023-03-11T05:52:57.073Z,99.99
2023-03-11T05:53:57.033Z,99.99
2023-03-11T05:54:57.024Z,99.99
2023-03-11T05:55:57.313Z,99.99
2023-03-11T05:56:57.054Z,99.99
2023-03-11T05:57:57.037Z,99.99
2023-03-11T05:58:56.990Z,99.99
2023-03-11T05:59:56.960Z,99.99
2023-03-11T06:00:56.963Z,99.99
2023-03-11T06:01:56.968Z,99.99
2023-03-11T06:02:57.270Z,99.99
2023-03-11T06:03:56.980Z,99.99
2023-03-11T06:04:57.051Z,99.99
2023-03-11T06:05:56.931Z,99.99
2023-03-11T06:06:56.890Z,99.99
2023-03-11T06:07:56.889Z,99.99
2023-03-11T06:08:56.934Z,99.99
2023-03-11T06:09:57.156Z,99.99
2023-03-11T06:10:56.847Z,99.99
2023-03-11T06:11:56.852Z,99.99
2023-03-11T06:12:56.834Z,99.99
2023-03-11T06:13:56.829Z,99.99
2023-03-11T06:14:56.854Z,99.99
2023-03-11T06:15:56.877Z,99.99
2023-03-11T06:16:57.109Z,99.99
2023-03-11T06:17:56.852Z,99.99
2023-03-11T06:18:56.759Z,99.99
2023-03-11T06:19:56.761Z,99.99
2023-03-11T06:20:56.799Z,99.99
2023-03-11T06:21:56.746Z,99.99
2023-03-11T06:22:56.734Z,99.99
2023-03-11T06:23:57.016Z,99.99
2023-03-11T06:24:56.723Z,99.99
2023-03-11T06:25:56.694Z,99.99
2023-03-11T06:26:56.721Z,99.99
2023-03-11T06:27:56.687Z,99.99
2023-03-11T06:28:56.669Z,99.99
2023-03-11T06:29:56.663Z,99.99
2023-03-11T06:30:56.942Z,99.99
2023-03-11T06:31:57.300Z,99.99
2023-03-11T06:32:56.880Z,99.99
2023-03-11T06:33:56.758Z,99.99
2023-03-11T06:34:56.638Z,99.99
2023-03-11T06:35:56.644Z,99.99
2023-03-11T06:36:56.582Z,99.99
2023-03-11T06:37:56.896Z,99.99
2023-03-11T06:38:56.607Z,99.99
2023-03-11T06:39:56.567Z,99.99
2023-03-11T06:40:56.555Z,99.99
2023-03-11T06:41:56.552Z,99.82
2023-03-11T06:42:56.530Z,99.51
2023-03-11T06:43:56.537Z,99.08
2023-03-11T06:44:56.849Z,98.46
2023-03-11T06:45:56.528Z,98.35
2023-03-11T06:46:56.486Z,98.31
2023-03-11T06:47:56.488Z,98.10
2023-03-11T06:48:56.479Z,97.16
2023-03-11T06:49:57.268Z,96.74
2023-03-11T06:50:56.507Z,96.74
2023-03-11T06:51:56.708Z,96.59
2023-03-11T06:52:56.415Z,96.28
2023-03-11T06:53:56.410Z,96.28
2023-03-11T06:54:56.424Z,95.86
2023-03-11T06:55:56.385Z,95.50
2023-03-11T06:56:56.439Z,95.19
2023-03-11T06:57:56.375Z,95.09
2023-03-11T06:58:56.665Z,94.15
2023-03-11T06:59:56.370Z,93.73
2023-03-11T07:00:56.394Z,93.69
2023-03-11T07:01:56.339Z,93.69
2023-03-11T07:02:56.380Z,92.96
2023-03-11T07:03:56.428Z,92.75
2023-03-11T07:04:56.330Z,92.54
2023-03-11T07:05:56.589Z,92.71
2023-03-11T07:06:56.275Z,91.97
2023-03-11T07:07:56.271Z,91.83
2023-03-11T07:08:56.752Z,91.83
2023-03-11T07:09:56.252Z,91.20
2023-03-11T07:10:56.242Z,90.58
2023-03-11T07:11:56.228Z,90.06
2023-03-11T07:12:56.501Z,89.91
2023-03-11T07:13:56.210Z,90.22
2023-03-11T07:14:56.225Z,89.60
2023-03-11T07:15:56.205Z,89.14
2023-03-11T07:16:56.311Z,89.04
2023-03-11T07:17:56.190Z,88.83
2023-03-11T07:18:56.177Z,88.42
2023-03-11T07:19:56.436Z,88.62
2023-03-11T07:20:56.201Z,88.37
2023-03-11T07:21:56.139Z,88.37
2023-03-11T07:22:56.121Z,88.23
2023-03-11T07:23:56.111Z,87.40
2023-03-11T07:24:56.090Z,85.98
2023-03-11T07:25:56.110Z,86.46
2023-03-11T07:26:56.542Z,87.50
2023-03-11T07:27:56.067Z,87.04
2023-03-11T07:28:56.043Z,86.32
2023-03-11T07:29:56.028Z,85.38
2023-03-11T07:30:56.042Z,85.86
2023-03-11T07:31:56.036Z,84.61
2023-03-11T07:32:56.082Z,83.89
2023-03-11T07:33:56.302Z,84.09
2023-03-11T07:34:55.983Z,84.09
2023-03-11T07:35:56.053Z,83.84
2023-03-11T07:36:55.953Z,84.58
2023-03-11T07:37:55.976Z,84.37
2023-03-11T07:38:55.991Z,83.18
2023-03-11T07:39:55.952Z,83.50
2023-03-11T07:40:56.203Z,81.94
2023-03-11T07:41:55.944Z,81.42
2023-03-11T07:42:55.966Z,82.25
2023-03-11T07:43:55.979Z,82.67
2023-03-11T07:44:56.004Z,83.25
2023-03-11T07:45:55.938Z,83.04
2023-03-11T07:46:55.867Z,81.76
2023-03-11T07:47:56.138Z,81.35
2023-03-11T07:48:55.836Z,80.47
2023-03-11T07:49:57.310Z,80.47
2023-03-11T07:50:55.884Z,79.65
2023-03-11T07:51:55.844Z,79.20
2023-03-11T07:52:55.882Z,79.10
2023-03-11T07:53:55.799Z,78.78
2023-03-11T07:54:56.080Z,79.10
2023-03-11T07:55:55.777Z,78.75
2023-03-11T07:56:55.819Z,78.44
2023-03-11T07:57:55.760Z,78.02
2023-03-11T07:58:55.750Z,77.40
2023-03-11T07:59:55.727Z,77.09
2023-03-11T08:00:55.715Z,76.88
2023-03-11T08:01:56.029Z,77.26
2023-03-11T08:02:55.776Z,77.22
2023-03-11T08:03:55.774Z,75.88
2023-03-11T08:04:55.684Z,74.74
2023-03-11T08:05:55.681Z,74.53
2023-03-11T08:06:55.686Z,74.02
2023-03-11T08:07:55.675Z,76.05
2023-03-11T08:08:56.007Z,75.43
2023-03-11T08:09:55.630Z,73.98
2023-03-11T08:10:55.621Z,74.15
2023-03-11T08:11:55.598Z,72.12
2023-03-11T08:12:55.685Z,74.05
2023-03-11T08:13:55.598Z,72.91
2023-03-11T08:14:55.626Z,74.12
2023-03-11T08:15:56.045Z,73.50
2023-03-11T08:16:55.548Z,72.74
2023-03-11T08:17:55.559Z,72.22
2023-03-11T08:18:55.585Z,71.98
2023-03-11T08:19:55.550Z,71.16
2023-03-11T08:20:55.608Z,72.06
2023-03-11T08:21:55.486Z,71.30
2023-03-11T08:22:58.385Z,69.62
2023-03-11T08:23:55.501Z,66.91
2023-03-11T08:24:55.470Z,66.28
2023-03-11T08:25:55.456Z,66.77
2023-03-11T08:26:55.512Z,67.49
2023-03-11T08:27:55.442Z,67.15
2023-03-11T08:28:55.449Z,67.33
2023-03-11T08:29:55.788Z,66.78
2023-03-11T08:30:55.481Z,64.59
2023-03-11T08:31:55.403Z,64.00
2023-03-11T08:32:55.489Z,64.72
2023-03-11T08:33:55.398Z,64.65
2023-03-11T08:34:55.361Z,64.37
2023-03-11T08:35:55.394Z,64.29
2023-03-11T08:36:55.633Z,65.22
2023-03-11T08:37:55.344Z,65.33
2023-03-11T08:38:55.461Z,65.64
2023-03-11T08:39:55.326Z,65.50
2023-03-11T08:40:55.348Z,65.09
2023-03-11T08:41:55.320Z,65.78
2023-03-11T08:42:55.292Z,65.47
2023-03-11T08:43:55.261Z,64.11
2023-03-11T08:44:55.301Z,63.69
2023-03-11T08:45:55.278Z,63.59
2023-03-11T08:46:55.281Z,64.21
2023-03-11T08:47:55.226Z,64.41
2023-03-11T08:48:55.223Z,63.76
2023-03-11T08:49:55.495Z,65.00
2023-03-11T08:50:55.277Z,62.84
2023-03-11T08:51:55.212Z,62.43
2023-03-11T08:52:55.184Z,60.81
2023-03-11T08:53:55.178Z,62.35
2023-03-11T08:54:55.144Z,61.63
2023-03-11T08:55:55.130Z,61.02
2023-03-11T08:56:55.480Z,61.94
2023-03-11T08:57:55.103Z,61.43
2023-03-11T08:58:55.121Z,61.02
2023-03-11T08:59:55.099Z,61.94
2023-03-11T09:00:55.160Z,62.77
2023-03-11T09:01:55.131Z,62.77
2023-03-11T09:02:55.129Z,63.46
2023-03-11T09:03:55.080Z,63.15
2023-03-11T09:04:55.058Z,63.02
2023-03-11T09:05:55.068Z,61.09
2023-03-11T09:06:55.058Z,60.35
2023-03-11T09:07:55.025Z,61.27
2023-03-11T09:08:55.074Z,62.88
2023-03-11T09:09:55.004Z,60.83
2023-03-11T09:10:55.010Z,60.39
2023-03-11T09:11:54.993Z,61.52
2023-03-11T09:12:55.010Z,59.44
2023-03-11T09:13:54.993Z,59.13
2023-03-11T09:14:55.340Z,58.92
2023-03-11T09:15:54.942Z,56.70
2023-03-11T09:16:54.940Z,59.91
2023-03-11T09:17:54.939Z,58.87
2023-03-11T09:18:54.920Z,60.83
2023-03-11T09:19:54.904Z,60.11
2023-03-11T09:20:55.371Z,58.39
2023-03-11T09:21:54.888Z,58.50
2023-03-11T09:22:54.878Z,60.14
2023-03-11T09:23:54.874Z,57.75
2023-03-11T09:24:54.890Z,57.44
2023-03-11T09:25:54.835Z,57.72
2023-03-11T09:26:55.168Z,58.67
2023-03-11T09:27:54.820Z,57.23
2023-03-11T09:28:54.830Z,57.62
2023-03-11T09:29:54.793Z,58.72
2023-03-11T09:30:54.808Z,58.59
2023-03-11T09:31:54.808Z,56.13
2023-03-11T09:32:54.916Z,55.85
2023-03-11T09:33:55.044Z,57.59
2023-03-11T09:34:54.755Z,58.07
2023-03-11T09:35:54.929Z,55.90
2023-03-11T09:36:54.737Z,57.41
2023-03-11T09:37:54.700Z,54.21
2023-03-11T09:38:54.736Z,52.26
2023-03-11T09:39:54.698Z,53.16
2023-03-11T09:40:54.969Z,52.23
2023-03-11T09:41:58.461Z,51.59
2023-03-11T09:42:54.652Z,51.78
2023-03-11T09:43:54.704Z,52.08
2023-03-11T09:44:54.724Z,52.37
2023-03-11T09:45:54.603Z,53.19
2023-03-11T09:46:54.694Z,50.32
2023-03-11T09:47:54.910Z,49.93
2023-03-11T09:48:54.585Z,51.47
2023-03-11T09:49:54.617Z,52.80
2023-03-11T09:50:54.643Z,52.80
2023-03-11T09:51:54.577Z,50.34
2023-03-11T09:52:54.553Z,52.72
2023-03-11T09:53:54.558Z,50.24
2023-03-11T09:54:54.526Z,50.24
2023-03-11T09:55:54.505Z,48.81
2023-03-11T09:56:54.578Z,49.11
2023-03-11T09:57:54.493Z,49.50
2023-03-11T09:58:54.530Z,49.19
2023-03-11T09:59:54.493Z,49.55
2023-03-11T10:00:54.777Z,48.43
2023-03-11T10:01:54.536Z,47.44
2023-03-11T10:02:54.688Z,49.30
2023-03-11T10:03:54.454Z,50.22
2023-03-11T10:04:54.464Z,49.91
2023-03-11T10:05:54.430Z,49.19
2023-03-11T10:06:54.440Z,51.34
2023-03-11T10:07:54.665Z,48.60
2023-03-11T10:08:54.426Z,51.39
2023-03-11T10:09:54.387Z,52.31
2023-03-11T10:10:54.407Z,51.59
2023-03-11T10:11:54.355Z,52.19
2023-03-11T10:12:54.333Z,49.73
2023-03-11T10:13:54.323Z,48.30
2023-03-11T10:14:54.680Z,50.47
2023-03-11T10:15:54.296Z,51.67
2023-03-11T10:16:54.445Z,50.34
2023-03-11T10:17:54.300Z,51.67
2023-03-11T10:18:54.258Z,48.30
2023-03-11T10:19:54.297Z,49.22
2023-03-11T10:20:54.283Z,48.68
2023-03-11T10:21:54.593Z,47.17
2023-03-11T10:22:54.226Z,47.48
2023-03-11T10:23:54.232Z,48.19
2023-03-11T10:24:54.230Z,46.84
2023-03-11T10:25:54.211Z,47.53
2023-03-11T10:26:54.254Z,46.31
2023-03-11T10:27:54.197Z,46.49
2023-03-11T10:28:54.484Z,46.57
2023-03-11T10:29:54.130Z,45.86
2023-03-11T10:30:54.134Z,45.55
2023-03-11T10:31:54.194Z,46.47
2023-03-11T10:32:54.278Z,45.55
2023-03-11T10:33:54.184Z,45.98
2023-03-11T10:34:54.110Z,49.76
2023-03-11T10:35:54.464Z,48.02
2023-03-11T10:36:54.077Z,45.98
2023-03-11T10:37:54.085Z,45.17
2023-03-11T10:38:54.176Z,45.67
2023-03-11T10:39:54.037Z,45.14
2023-03-11T10:40:54.031Z,44.84
2023-03-11T10:41:54.036Z,43.20
2023-03-11T10:42:54.318Z,45.02
2023-03-11T10:43:54.024Z,44.10
2023-03-11T10:44:54.129Z,44.41
2023-03-11T10:45:54.048Z,43.79
2023-03-11T10:46:54.020Z,42.16
2023-03-11T10:47:54.346Z,44.28
2023-03-11T10:48:53.985Z,43.44
2023-03-11T10:49:54.252Z,43.35
2023-03-11T10:50:53.971Z,42.21
2023-03-11T10:51:53.910Z,42.33
2023-03-11T10:52:53.901Z,43.24
2023-03-11T10:53:53.909Z,43.04
2023-03-11T10:54:53.901Z,44.57
2023-03-11T10:55:53.863Z,41.41
2023-03-11T10:56:54.214Z,42.00
2023-03-11T10:57:53.839Z,42.00
2023-03-11T10:58:53.828Z,40.78
2023-03-11T10:59:53.841Z,41.61
2023-03-11T11:00:53.879Z,42.83
2023-03-11T11:01:53.804Z,44.37
2023-03-11T11:02:53.918Z,41.96
2023-03-11T11:03:53.781Z,42.45
2023-03-11T11:04:53.769Z,43.14
2023-03-11T11:05:53.777Z,43.55
2023-03-11T11:06:53.760Z,43.71
2023-03-11T11:07:53.747Z,42.69
2023-03-11T11:08:54.105Z,40.76
2023-03-11T11:09:53.759Z,40.55
2023-03-11T11:10:53.709Z,42.51
2023-03-11T11:11:53.728Z,41.10
2023-03-11T11:12:53.675Z,41.38
2023-03-11T11:13:53.663Z,41.81
2023-03-11T11:14:53.999Z,42.55
2023-03-11T11:15:53.683Z,43.88
2023-03-11T11:16:53.725Z,45.41
2023-03-11T11:17:53.634Z,44.47
2023-03-11T11:18:53.652Z,42.73
2023-03-11T11:19:53.655Z,41.81
2023-03-11T11:20:53.636Z,41.83
2023-03-11T11:21:53.630Z,44.08
2023-03-11T11:22:53.586Z,43.38
2023-03-11T11:23:54.054Z,43.67
2023-03-11T11:24:53.650Z,43.96
2023-03-11T11:25:53.546Z,43.82
2023-03-11T11:26:54.855Z,44.51
2023-03-11T11:27:54.274Z,42.97
2023-03-11T11:28:53.625Z,42.91
2023-03-11T11:29:54.272Z,43.98
2023-03-11T11:30:53.583Z,45.25
2023-03-11T11:31:53.525Z,46.25
2023-03-11T11:32:53.572Z,46.86
2023-03-11T11:33:53.730Z,45.82
2023-03-11T11:34:53.465Z,44.70
2023-03-11T11:35:53.476Z,44.88
2023-03-11T11:36:53.431Z,44.55
2023-03-11T11:37:53.466Z,43.02
2023-03-11T11:38:53.467Z,42.91
2023-03-11T11:39:53.413Z,44.02
2023-03-11T11:40:53.683Z,42.90
2023-03-11T11:41:53.454Z,43.82
2023-03-11T11:42:53.354Z,41.77
2023-03-11T11:43:53.386Z,42.16
2023-03-11T11:44:53.390Z,42.26
2023-03-11T11:45:53.369Z,43.57
2023-03-11T11:46:53.309Z,43.55
2023-03-11T11:47:53.324Z,42.41
2023-03-11T11:48:53.350Z,43.23
2023-03-11T11:49:53.301Z,41.10
2023-03-11T11:50:53.625Z,42.53
2023-03-11T11:51:53.255Z,42.82
2023-03-11T11:52:53.241Z,43.02
2023-03-11T11:53:53.238Z,41.51
2023-03-11T11:54:53.233Z,43.04
2023-03-11T11:55:53.215Z,42.21
2023-03-11T11:56:53.274Z,44.14
2023-03-11T11:57:53.247Z,38.74
2023-03-11T11:58:53.209Z,40.17
2023-03-11T11:59:53.159Z,40.26
2023-03-11T12:00:53.175Z,39.94
2023-03-11T12:01:53.156Z,40.76
2023-03-11T12:02:53.474Z,37.92
2023-03-11T12:03:53.228Z,39.81
2023-03-11T12:04:53.151Z,43.35
2023-03-11T12:05:53.185Z,40.31
2023-03-11T12:06:53.149Z,39.43
2023-03-11T12:07:53.085Z,40.00
2023-03-11T12:08:53.123Z,41.29
2023-03-11T12:09:53.349Z,41.38
2023-03-11T12:10:53.068Z,41.42
2023-03-11T12:11:53.057Z,42.50
2023-03-11T12:12:53.034Z,40.87
2023-03-11T12:13:53.042Z,41.81
2023-03-11T12:14:53.120Z,42.73
2023-03-11T12:15:53.051Z,42.85
2023-03-11T12:16:53.276Z,43.53
2023-03-11T12:17:52.989Z,43.41
2023-03-11T12:18:53.003Z,43.59
2023-03-11T12:19:52.997Z,42.77
2023-03-11T12:20:53.013Z,42.67
2023-03-11T12:21:52.941Z,41.96
2023-03-11T12:22:52.940Z,40.42
2023-03-11T12:23:55.007Z,39.79
2023-03-11T12:24:53.782Z,39.78
2023-03-11T12:25:52.908Z,41.61
2023-03-11T12:26:52.935Z,39.78
2023-03-11T12:27:52.877Z,41.89
2023-03-11T12:28:52.882Z,41.19
2023-03-11T12:29:52.866Z,40.10
2023-03-11T12:30:53.196Z,41.04
2023-03-11T12:31:52.862Z,41.56
2023-03-11T12:32:53.000Z,43.38
2023-03-11T12:33:52.812Z,41.94
2023-03-11T12:34:52.790Z,40.51
2023-03-11T12:35:53.017Z,41.53
2023-03-11T12:36:52.840Z,39.61
2023-03-11T12:37:52.797Z,40.83
2023-03-11T12:38:52.819Z,40.34
2023-03-11T12:39:52.751Z,42.41
2023-03-11T12:40:52.799Z,42.22
2023-03-11T12:41:52.723Z,41.91
2023-03-11T12:42:52.715Z,42.30
2023-03-11T12:43:52.989Z,41.61
2023-03-11T12:44:52.800Z,42.22
2023-03-11T12:45:52.698Z,43.02
2023-03-11T12:46:52.694Z,42.20
2023-03-11T12:47:52.682Z,42.81
2023-03-11T12:48:52.663Z,40.67
2023-03-11T12:49:52.647Z,42.20
2023-03-11T12:50:52.992Z,43.61
2023-03-11T12:51:52.632Z,42.47